Date,TemperatureHighF,TemperatureAvgF,TemperatureLowF,DewpointHighF,DewpointAvgF,DewpointLowF,HumidityHigh,HumidityAvg,HumidityLow,PressureMaxIn,PressureMinIn,WindSpeedMaxMPH,WindSpeedAvgMPH,GustSpeedMaxMPH,PrecipitationSumIn
2013-7-1,76.3,65.0,55.8,55.3,50.2,45.0,89,62,34,30.07,29.97,5,2,12,0.00
2013-7-2,66.0,59.9,53.1,57.1,51.8,48.1,90,75,55,29.99,29.65,6,2,12,0.00
2013-7-3,76.3,64.3,57.9,62.4,57.8,54.4,98,81,52,30.00,29.60,5,2,11,0.09
2013-7-4,80.1,66.4,54.1,63.3,58.7,52.7,96,78,54,30.25,30.00,6,2,13,0.00
2013-7-5,87.8,69.3,52.2,59.0,53.8,46.5,98,64,24,30.41,30.25,4,1,8,0.00
2013-7-6,91.0,72.4,52.0,62.0,53.9,45.8,98,59,22,30.41,30.31,3,1,7,0.00
2013-7-7,93.4,75.9,59.2,68.0,57.3,48.9,98,59,24,30.48,30.40,5,1,11,0.00
2013-7-8,89.4,73.1,59.2,61.1,55.3,47.6,87,59,27,30.52,30.42,6,2,13,0.00
2013-7-9,89.6,71.5,55.8,55.6,44.0,21.3,86,47,9,30.46,30.26,5,1,11,0.00
2013-7-10,83.5,68.8,52.3,58.4,53.2,49.7,92,61,34,30.31,30.23,8,2,12,0.00
2013-7-11,82.4,65.7,54.1,52.9,47.6,42.3,85,56,25,30.32,30.22,5,2,10,0.00
2013-7-12,86.0,67.5,54.3,57.9,53.3,49.9,90,65,31,30.32,30.21,4,1,7,0.00
2013-7-13,98.4,77.2,58.1,65.2,59.2,52.7,97,61,22,30.26,30.20,5,1,11,0.00
2013-7-14,92.7,77.7,62.2,64.1,57.1,45.8,91,55,21,30.27,30.17,5,1,9,0.00
2013-7-15,95.4,76.5,60.1,62.4,49.3,23.6,89,49,9,30.25,30.17,3,1,6,0.00
2013-7-16,95.9,78.5,63.1,60.7,55.8,41.4,82,51,16,30.24,30.16,4,1,8,0.00
2013-7-17,98.6,78.9,61.3,59.7,54.4,44.6,82,48,16,30.28,30.19,4,1,8,0.00
2013-7-18,92.8,76.4,63.1,61.6,56.8,48.4,87,56,22,30.33,30.26,5,2,12,0.00
2013-7-19,89.2,73.6,57.6,60.1,54.4,49.6,78,55,27,30.32,30.20,8,2,15,0.00
2013-7-20,81.5,69.3,62.2,61.7,60.3,56.1,95,74,48,30.26,30.15,5,2,14,0.00
2013-7-21,88.5,72.1,63.1,62.6,60.0,55.4,90,69,37,30.19,30.03,6,2,11,0.00
2013-7-22,98.4,79.9,63.9,67.8,60.6,50.9,98,59,21,30.07,29.95,6,1,10,0.00
2013-7-23,91.6,75.7,64.8,71.4,64.8,59.1,96,71,36,29.96,29.89,5,1,10,0.05
2013-7-24,88.7,72.0,59.9,62.2,58.9,51.7,93,67,29,30.00,29.92,4,2,13,0.00
2013-7-25,83.7,71.0,61.7,67.0,61.7,55.3,98,75,38,29.95,29.88,7,1,14,0.14
2013-7-26,91.0,72.1,55.8,61.4,55.4,47.2,98,62,23,29.93,29.84,4,1,8,0.00
2013-7-27,91.4,70.3,55.6,68.8,57.0,45.0,98,69,21,29.88,29.59,4,0,10,0.25
2013-7-28,80.8,69.1,59.0,63.1,59.2,55.0,98,74,42,29.80,29.61,9,3,19,0.17
2013-7-29,79.2,68.3,61.0,62.9,59.8,53.8,98,77,44,29.99,29.80,9,3,21,0.04
2013-7-30,75.7,64.9,60.1,68.7,62.6,59.2,98,93,69,29.99,29.86,5,2,11,0.09
2013-7-31,80.6,68.8,61.5,66.7,63.3,59.8,98,83,59,30.01,29.96,7,2,14,0.00